createdAt,value
2019-02-24T00:01:08.748Z,3.20
2019-02-24T00:06:12.240Z,3.30
2019-02-24T00:11:15.729Z,4.20
2019-02-24T00:16:19.233Z,4.40
2019-02-24T00:21:22.715Z,3.60
2019-02-24T00:26:26.209Z,2.67
2019-02-24T00:31:29.704Z,4.12
2019-02-24T00:36:33.197Z,3.53
2019-02-24T00:41:36.691Z,3.80
2019-02-24T00:46:40.184Z,3.58
2019-02-24T00:51:43.675Z,3.90
2019-02-24T00:56:47.168Z,4.10
2019-02-24T01:01:51.226Z,3.20
2019-02-24T01:06:54.713Z,3.27
2019-02-24T01:11:58.208Z,4.08
2019-02-24T01:17:01.708Z,3.02
2019-02-24T01:22:05.204Z,3.47
2019-02-24T01:27:08.695Z,2.60
2019-02-24T01:32:12.186Z,4.75
2019-02-24T01:37:15.677Z,3.20
2019-02-24T01:42:19.176Z,3.65
2019-02-24T01:47:22.669Z,2.40
2019-02-24T01:52:26.157Z,5.15
2019-02-24T01:57:29.663Z,2.90
2019-02-24T02:02:33.161Z,2.60
2019-02-24T02:07:36.656Z,2.93
2019-02-24T02:12:40.153Z,2.47
2019-02-24T02:17:43.641Z,3.20
2019-02-24T02:22:47.132Z,3.83
2019-02-24T02:27:50.635Z,4.00
2019-02-24T02:32:54.126Z,2.90
2019-02-24T02:37:57.636Z,1.62
2019-02-24T02:43:01.136Z,2.20
2019-02-24T02:48:04.626Z,3.00
2019-02-24T02:53:08.129Z,3.40
2019-02-24T02:58:11.597Z,2.75
2019-02-24T03:03:15.091Z,2.67
2019-02-24T03:08:18.648Z,3.60
2019-02-24T03:13:22.138Z,2.90
2019-02-24T03:18:26.178Z,2.53
2019-02-24T03:23:29.661Z,2.53
2019-02-24T03:28:33.140Z,2.20
2019-02-24T03:33:36.615Z,2.40
2019-02-24T03:38:40.088Z,4.03
2019-02-24T03:43:43.558Z,2.13
2019-02-24T03:48:47.031Z,2.77
2019-02-24T03:53:50.574Z,3.23
2019-02-24T03:58:54.080Z,3.20
2019-02-24T04:03:57.539Z,3.10
2019-02-24T04:09:01.008Z,2.35
2019-02-24T04:14:04.523Z,2.63
2019-02-24T04:19:08.003Z,2.65
2019-02-24T04:24:11.875Z,2.23
2019-02-24T04:29:24.336Z,2.60
2019-02-24T04:34:20.564Z,2.70
2019-02-24T04:39:24.041Z,2.73
2019-02-24T04:44:27.514Z,2.20
2019-02-24T04:49:30.988Z,2.40
2019-02-24T04:54:34.470Z,1.45
2019-02-24T04:59:37.937Z,2.63
2019-02-24T05:04:41.409Z,2.10
2019-02-24T05:09:44.881Z,2.33
2019-02-24T05:14:48.352Z,2.25
2019-02-24T05:19:51.873Z,2.47
2019-02-24T05:24:55.333Z,2.10
2019-02-24T05:29:58.806Z,1.70
2019-02-24T05:35:02.402Z,2.33
2019-02-24T05:40:06.321Z,3.22
2019-02-24T05:45:09.797Z,1.90
2019-02-24T05:50:13.264Z,2.40
2019-02-24T05:55:16.735Z,2.07
2019-02-24T06:00:20.209Z,3.10
2019-02-24T06:05:23.681Z,1.70
2019-02-24T06:10:27.154Z,2.57
2019-02-24T06:15:30.624Z,2.27
2019-02-24T06:20:34.093Z,3.47
2019-02-24T06:25:37.613Z,2.50
2019-02-24T06:30:41.039Z,2.08
2019-02-24T06:35:44.510Z,1.80
2019-02-24T06:40:47.993Z,2.20
2019-02-24T06:45:51.463Z,2.27
2019-02-24T06:50:59.609Z,2.08
2019-02-24T06:56:03.083Z,2.80
2019-02-24T07:01:06.558Z,1.77
2019-02-24T07:06:10.031Z,1.87
2019-02-24T07:11:13.507Z,2.50
2019-02-24T07:16:16.980Z,2.40
2019-02-24T07:21:20.450Z,4.05
2019-02-24T07:26:23.928Z,2.53
2019-02-24T07:31:27.407Z,1.83
2019-02-24T07:36:30.879Z,1.98
2019-02-24T07:41:34.359Z,2.77
2019-02-24T07:46:37.835Z,1.87
2019-02-24T07:51:41.310Z,1.60
2019-02-24T07:56:44.780Z,1.92
2019-02-24T08:01:48.254Z,7.23
2019-02-24T08:06:51.736Z,11.03
2019-02-24T08:11:55.214Z,8.08
2019-02-24T08:16:58.687Z,8.73
2019-02-24T08:22:02.158Z,7.20
2019-02-24T08:27:05.633Z,6.55
2019-02-24T08:32:09.106Z,9.07
2019-02-24T08:37:12.582Z,7.03
2019-02-24T08:42:16.055Z,6.67
2019-02-24T08:47:19.525Z,8.13
2019-02-24T08:52:22.997Z,6.43
2019-02-24T08:57:26.465Z,7.17
2019-02-24T09:02:29.939Z,5.10
2019-02-24T09:07:33.417Z,7.40
2019-02-24T09:12:36.891Z,5.57
2019-02-24T09:17:40.374Z,5.90
2019-02-24T09:22:44.789Z,4.22
2019-02-24T09:27:48.260Z,4.17
2019-02-24T09:32:51.731Z,6.12
2019-02-24T09:37:55.206Z,4.37
2019-02-24T09:42:58.681Z,6.43
2019-02-24T09:48:02.159Z,12.82
2019-02-24T09:53:05.636Z,5.50
2019-02-24T09:58:09.110Z,5.27
2019-02-24T10:03:13.445Z,5.00
2019-02-24T10:08:16.917Z,3.90
2019-02-24T10:13:20.392Z,5.65
2019-02-24T10:18:23.862Z,4.23
2019-02-24T10:23:27.338Z,4.58
2019-02-24T10:28:30.809Z,6.03
2019-02-24T10:33:34.280Z,4.27
2019-02-24T10:38:37.757Z,5.60
2019-02-24T10:43:41.266Z,5.67
2019-02-24T10:48:44.736Z,4.83
2019-02-24T10:53:48.247Z,5.45
2019-02-24T10:58:51.718Z,3.80
2019-02-24T11:03:55.209Z,6.12
2019-02-24T11:08:58.697Z,4.70
2019-02-24T11:14:02.186Z,4.87
2019-02-24T11:19:05.683Z,4.80
2019-02-24T11:24:09.171Z,4.10
2019-02-24T11:29:12.661Z,6.07
2019-02-24T11:34:16.151Z,8.98
2019-02-24T11:39:19.642Z,10.20
2019-02-24T11:44:23.137Z,10.07
2019-02-24T11:49:26.624Z,7.50
2019-02-24T11:54:30.115Z,8.30
2019-02-24T11:59:33.605Z,8.27
2019-02-24T12:04:37.099Z,10.60
2019-02-24T12:09:40.606Z,6.63
2019-02-24T12:14:44.084Z,8.48
2019-02-24T12:19:47.580Z,5.60
2019-02-24T12:24:51.077Z,6.60
2019-02-24T12:29:54.569Z,6.93
2019-02-24T12:34:58.053Z,7.23
2019-02-24T12:40:01.545Z,7.53
2019-02-24T12:45:07.169Z,5.17
2019-02-24T12:50:17.564Z,6.97
2019-02-24T12:55:21.048Z,6.63
2019-02-24T13:00:26.444Z,5.37
2019-02-24T13:05:29.943Z,5.58
2019-02-24T13:10:33.439Z,7.77
2019-02-24T13:15:36.931Z,5.20
2019-02-24T13:20:40.418Z,5.42
2019-02-24T13:25:43.916Z,5.87
2019-02-24T13:30:47.473Z,4.57
2019-02-24T13:35:50.961Z,5.67
2019-02-24T13:40:54.451Z,3.93
2019-02-24T13:45:57.944Z,4.47
2019-02-24T13:51:01.428Z,4.90
2019-02-24T13:56:05.098Z,4.93
2019-02-24T14:01:08.583Z,5.92
2019-02-24T14:06:12.073Z,4.60
2019-02-24T14:11:15.557Z,5.47
2019-02-24T14:16:19.050Z,3.77
2019-02-24T14:21:22.542Z,4.67
2019-02-24T14:26:26.034Z,3.63
2019-02-24T14:31:29.594Z,3.20
2019-02-24T14:36:33.093Z,3.12
2019-02-24T14:41:36.584Z,4.10
2019-02-24T14:46:40.072Z,3.67
2019-02-24T14:51:43.566Z,5.28
2019-02-24T14:56:47.063Z,5.05
2019-02-24T15:01:50.560Z,4.87
2019-02-24T15:06:54.056Z,5.00
2019-02-24T15:11:57.546Z,3.83
2019-02-24T15:17:01.038Z,4.00
2019-02-24T15:22:04.535Z,6.90
2019-02-24T15:27:08.036Z,2.90
2019-02-24T15:32:11.531Z,4.37
2019-02-24T15:37:15.024Z,3.20
2019-02-24T15:42:18.519Z,5.33
2019-02-24T15:47:22.353Z,4.40
2019-02-24T15:52:25.838Z,3.47
2019-02-24T15:57:29.331Z,3.90
2019-02-24T16:02:32.819Z,2.97
2019-02-24T16:07:36.307Z,2.67
2019-02-24T16:12:39.793Z,2.97
2019-02-24T16:17:43.306Z,5.00
2019-02-24T16:22:46.773Z,3.22
2019-02-24T16:27:50.265Z,4.73
2019-02-24T16:32:53.770Z,3.47
2019-02-24T16:37:57.258Z,3.40
2019-02-24T16:43:00.744Z,2.50
2019-02-24T16:48:04.313Z,7.13
2019-02-24T16:53:07.793Z,3.60
2019-02-24T16:58:11.273Z,2.43
2019-02-24T17:03:19.830Z,2.43
2019-02-24T17:08:19.940Z,3.77
2019-02-24T17:13:23.416Z,2.73
2019-02-24T17:18:26.883Z,3.37
2019-02-24T17:23:30.357Z,2.30
2019-02-24T17:28:33.833Z,2.80
2019-02-24T17:33:37.407Z,3.10
2019-02-24T17:38:40.884Z,4.27
2019-02-24T17:43:44.361Z,3.40
2019-02-24T17:48:47.830Z,6.57
2019-02-24T17:53:51.301Z,2.23
2019-02-24T17:58:54.774Z,2.73
2019-02-24T18:03:58.256Z,3.60
2019-02-24T18:09:01.729Z,2.83
2019-02-24T18:14:05.198Z,3.40
2019-02-24T18:19:08.670Z,3.23
2019-02-24T18:24:12.143Z,2.63
2019-02-24T18:29:15.619Z,2.10
2019-02-24T18:34:19.089Z,3.07
2019-02-24T18:39:22.563Z,3.03
2019-02-24T18:44:27.679Z,2.60
2019-02-24T18:49:31.150Z,6.80
2019-02-24T18:54:35.134Z,3.12
2019-02-24T18:59:38.665Z,4.75
2019-02-24T19:04:42.142Z,2.50
2019-02-24T19:09:45.628Z,3.20
2019-02-24T19:14:49.106Z,2.20
2019-02-24T19:19:52.586Z,2.30
2019-02-24T19:24:56.058Z,2.15
2019-02-24T19:29:59.530Z,4.00
2019-02-24T19:35:03.076Z,1.98
2019-02-24T19:40:09.752Z,3.45
2019-02-24T19:45:15.564Z,2.13
2019-02-24T19:50:19.104Z,2.47
2019-02-24T19:55:22.584Z,2.40
2019-02-24T20:00:26.806Z,2.30
2019-02-24T20:05:30.271Z,1.92
2019-02-24T20:10:33.747Z,1.98
2019-02-24T20:15:37.226Z,2.07
2019-02-24T20:20:40.698Z,3.00
2019-02-24T20:25:44.176Z,2.72
2019-02-24T20:30:47.647Z,3.77
2019-02-24T20:35:51.122Z,2.00
2019-02-24T20:40:54.592Z,3.05
2019-02-24T20:45:58.076Z,2.10
2019-02-24T20:51:01.552Z,2.67
2019-02-24T20:56:05.095Z,2.53
2019-02-24T21:01:10.210Z,3.33
2019-02-24T21:06:13.686Z,2.20
2019-02-24T21:11:17.164Z,2.60
2019-02-24T21:16:20.639Z,2.70
2019-02-24T21:21:24.118Z,3.22
2019-02-24T21:26:27.589Z,1.65
2019-02-24T21:31:31.067Z,1.47
2019-02-24T21:36:34.536Z,3.00
2019-02-24T21:41:38.011Z,2.77
2019-02-24T21:46:41.482Z,1.85
2019-02-24T21:51:44.964Z,1.87
2019-02-24T21:56:48.441Z,1.95
2019-02-24T22:01:51.916Z,2.58
2019-02-24T22:06:55.385Z,2.33
2019-02-24T22:11:59.530Z,2.52
2019-02-24T22:17:03.001Z,2.72
2019-02-24T22:22:06.468Z,2.25
2019-02-24T22:27:09.943Z,2.00
2019-02-24T22:32:13.417Z,2.15
2019-02-24T22:37:16.886Z,1.60
2019-02-24T22:42:20.361Z,2.62
2019-02-24T22:47:23.844Z,2.08
2019-02-24T22:52:27.316Z,2.40
2019-02-24T22:57:30.793Z,2.60
2019-02-24T23:02:34.268Z,2.87
2019-02-24T23:07:37.746Z,1.55
2019-02-24T23:12:41.384Z,2.12
2019-02-24T23:17:44.858Z,2.77
2019-02-24T23:22:48.338Z,2.15
2019-02-24T23:27:51.814Z,1.83
2019-02-24T23:32:55.288Z,2.50
2019-02-24T23:37:58.765Z,1.92
2019-02-24T23:43:02.242Z,1.92
2019-02-24T23:48:05.722Z,1.90
2019-02-24T23:53:09.198Z,2.07
2019-02-24T23:58:13.136Z,1.93
